Orlando, Florida
Traffic Map
Current Weather Conditions
Orlando, Florida
Broken Clouds
Broken Clouds
79°
Feels Like: 82°
Wind Chill: 79° Ceiling: 3000
Heat Index: 82° Visibility: 10mi
Dew Point: 74° Wind: 7mph
Humidity: 84% Direction: 50° (NE)
Pressure: 29.92in Gusts: 0mph
Raw Report DataKORL 012202Z AUTO 05006KT 10SM BKN030 26/23 A2992 RMK AO2 T02610233
Traffic Incident Summary
Active as of:
Severity:
Category:
InformationThere was an issue retrieving the traffic information for this location. Please try a different location or try again shortly.
Advertisements
Track Severe Weather on mobile